Aérodrome :
LOGIN :

S'inscrire | Disclaimer

   EN    FR    IT 

 










Légende :    VFR   VFR Marginal   IFR   IFR Intensif   IFR Très Intensif
Visi : 
Plafond : 
>= 8 km
>= 3000ft
5 à 8 km
1000 à 3000 ft
1500m à 5 km
500 à 1000 ft
800 à 1500m
200 à 500 ft
< 800m
< 200 ft
Symboles :   Orages  Brouillard  Fortes neiges  Fortes précipitations  Vent > 20 kt
SIGMETs :   Divers  Orages  Givrage  Turbulence  Onde Orograph.  Cendres Volcan.







- Altitude de l'aérodrome : 13 ft
- Code IATA : CAG


LIEE - Cagliari Elmas

DERNIER METAR :
  • 181220Z 13011KT CAVOK 26/15 Q1015

METARs EXPIRÉS :
  • 181150Z 16008KT 130V190 CAVOK 26/15 Q1015
  • 181120Z 16008KT CAVOK 27/15 Q1015
  • 181050Z 15009KT CAVOK 26/15 Q1015
  • 181020Z 17007KT CAVOK 26/16 Q1015
  • 180950Z 21005KT 180V250 CAVOK 27/15 Q1015
  • 180920Z 20004KT 170V230 CAVOK 26/15 Q1015

TAF TAF LIEE
Valide du 18 à 12h jusqu'au 19 à 12h UTC


181100Z 1812/1912 16012KT CAVOK
BECMG 1817/1819 VRB05KT
TEMPO 1902/1905 3000 BR
Pas de NOTAMs connus pour ce terrain.



MET'MAP, la Météo Aéronautique d'un coup d'oeil ! - Copyright ORBIFLY Décembre 2007 - Disclaimer

ORBIFLY MET'MAP TEAM :

Programmation & Développement : Alexandra Zaïnal
Conception & Développement : Baudouin d'Aumeries
Co-Programmation & Développement : Marc-Olivier Méhu
Soutien technique & logistique : Manuel Goepfert

Contact : metmap@orbifly.com




SOURCES & CREDITS :

   NOAA